Aviation Digital Data Service (ADDS)

Output produced by METARs form (0539 UTC 11 December 2017)
found at http://www.aviationweather.gov/adds/metars/
 
KILE 110456Z AUTO 25004KT 10SM CLR 08/M02 A3034 RMK AO2 SLP297 T00831017
KILE 110356Z AUTO 25006KT 10SM CLR 09/M02 A3035 RMK AO2 SLP301 T00891017
KILE 110256Z AUTO 23004KT 10SM CLR 11/M02 A3035 RMK AO2 SLP298 T01061017 51001
KILE 110156Z AUTO 26005KT 10SM CLR 11/M01 A3035 RMK AO2 SLP297 T01111011
KILE 110056Z AUTO 23006KT 10SM CLR 14/M01 A3035 RMK AO2 SLP302 T01441011
KILE 102356Z AUTO 22005KT 10SM CLR 16/M02 A3035 RMK AO2 SLP298 T01561017 10211 20156 55001
KILE 102256Z AUTO 30004KT 10SM CLR 19/M04 A3034 RMK AO2 SLP299 T01941039
KILE 102156Z AUTO 28006KT 10SM CLR 21/M05 A3034 RMK AO2 SLP295 T02111050
KILE 102056Z AUTO 31004KT 10SM CLR 21/M05 A3035 RMK AO2 SLP300 T02061050 56026
KILE 101956Z AUTO VRB06KT 10SM CLR 20/M04 A3036 RMK AO2 SLP302 T02001039
KILE 101856Z AUTO 26006KT 10SM CLR 19/M03 A3039 RMK AO2 SLP314 T01891033
KILE 101756Z AUTO 29008KT 10SM CLR 17/M02 A3043 RMK AO2 SLP327 T01721022 10172 21011 58008
KILE 101656Z AUTO 24007KT 10SM CLR 16/M02 A3045 RMK AO2 SLP335 T01611017
KILE 101556Z AUTO 27003KT 10SM CLR 11/M01 A3046 RMK AO2 SLP339 T01111006
KILE 101456Z AUTO VRB03KT 10SM CLR 07/00 A3045 RMK AO2 SLP336 T00670000 53018
KILE 101356Z AUTO 00000KT 10SM CLR 01/M03 A3043 RMK AO2 SLP327 T00061028 FZRANO
KILE 101256Z AUTO 00000KT 10SM CLR 00/M03 A3041 RMK AO2 SLP320 T00001028 FZRANO
KILE 101156Z AUTO 31004KT 10SM CLR 01/M03 A3040 RMK AO2 SLP318 T00061033 10056 21006 55000 FZRANO
KILE 101056Z AUTO 27003KT 10SM CLR M01/M03 A3040 RMK AO2 SLP316 T10061028 FZRANO
KILE 100956Z AUTO 27005KT 10SM CLR 01/M03 A3040 RMK AO2 SLP319 T00111028 FZRANO
KILE 100856Z AUTO 19005KT 10SM CLR 01/M03 A3040 RMK AO2 SLP320 T00111028 53003 FZRANO
KILE 100756Z AUTO 28004KT 10SM CLR 03/M03 A3039 RMK AO2 SLP314 T00281028
KILE 100656Z AUTO 28003KT 10SM CLR 03/M03 A3039 RMK AO2 SLP314 T00281028
KILE 100556Z AUTO 29005KT 10SM CLR 05/M03 A3039 RMK AO2 SLP315 T00501028 10128 20050 401780000 50013